Flight Track Log - Related Links

Times and Time Zones

All times are in EDT time to prevent confusion due to time zone crossing. See the NKS649 flight status page for this flight to view local times or setup timezone preferences in your user account.

Time Position Orientation Groundspeed Altitude Reporting Facility
EDT Latitude Longitude Course Direction KTS MPH feet Rate Location/Type
Wed 11:36:40 AM 26.0753 -80.1275 75° East 174 200 1,300  Level Miami Center
Wed 11:37:17 AM 26.0844 -80.0906 75° East 168 193 2,400 1,881 Climbing Miami Center
Wed 11:37:47 AM 26.0850 -80.0653 89° East 176 203 3,400 1,800 Climbing Miami Center
Wed 11:38:17 AM 26.0919 -80.0331 76° East 186 214 4,200 1,267 Climbing Miami Center
Wed 11:39:17 AM 26.0933 -79.9683 89° East 205 236 5,300 1,550 Climbing Miami Center
Wed 11:40:17 AM 26.0761 -79.8892 104° East 231 266 7,300 2,000 Climbing Miami Center
Wed 11:41:17 AM 26.0592 -79.8033 102° East 261 300 9,300 1,650 Climbing Miami Center
Wed 11:42:17 AM 26.0442 -79.7128 100° East 281 323 10,600 1,500 Climbing Miami Center
Wed 11:43:17 AM 26.0211 -79.6033 103° East 321 369 12,300 1,750 Climbing Miami Center
Wed 11:44:17 AM 25.9961 -79.4942 104° East 343 395 14,100 1,750 Climbing Miami Center
Wed 11:45:17 AM 25.9750 -79.3828 102° East 358 412 15,800 1,800 Climbing Miami Center
Wed 11:46:17 AM 25.9331 -79.2711 113° Southeast 371 427 17,700 1,400 Climbing Miami Center
Wed 11:47:17 AM 25.8736 -79.1867 128° Southeast 371 427 18,600 1,200 Climbing Miami Center
Wed 11:48:17 AM 25.8042 -79.0861 127° Southeast 396 456 20,100 1,350 Climbing Miami Center
Wed 11:49:17 AM 25.7325 -78.9856 128° Southeast 414 476 21,300 1,350 Climbing Miami Center
Wed 11:50:17 AM 25.6486 -78.8714 129° Southeast 425 489 22,800 1,250 Climbing Miami Center
Wed 11:51:17 AM 25.5706 -78.7639 129° Southeast 430 495 23,800 1,100 Climbing Miami Center
Wed 11:52:17 AM 25.4989 -78.6500 125° Southeast 441 507 25,000 1,100 Climbing Miami Center
Wed 11:53:17 AM 25.4356 -78.5247 119° Southeast 448 516 26,000 1,050 Climbing Miami Center
Wed 11:54:17 AM 25.3742 -78.4022 119° Southeast 460 529 27,100 1,150 Climbing Miami Center
Wed 11:55:17 AM 25.3128 -78.2750 118° Southeast 460 529 28,300 1,000 Climbing Miami Center
Wed 11:56:17 AM 25.2469 -78.1547 121° Southeast 460 529 29,100 1,350 Climbing Miami Center
Wed 11:57:17 AM 25.1853 -78.0347 120° Southeast 461 531 31,000 950 Climbing Miami Center
Wed 11:58:17 AM 25.1256 -77.9147 119° Southeast 450 518 31,000  Level Miami Center
Wed 11:59:17 AM 25.0658 -77.8017 120° Southeast 438 504 31,000  Level Miami Center
Wed 12:00:17 PM 25.0039 -77.6867 121° Southeast 438 504 31,000  Level Miami Center
Wed 12:01:17 PM 24.9397 -77.5694 121° Southeast 438 504 31,000  Level Miami Center
Wed 12:02:17 PM 24.8775 -77.4497 120° Southeast 449 517 31,000  Level Miami Center
Wed 12:03:17 PM 24.8194 -77.3281 118° Southeast 449 517 31,000  Level Miami Center
Wed 12:04:17 PM 24.7589 -77.2111 120° Southeast 442 509 31,000  Level Miami Center
Wed 12:05:17 PM 24.7008 -77.0989 120° Southeast 437 503 31,000  Level Miami Center
Wed 12:06:17 PM 24.6381 -76.9800 120° Southeast 437 503 31,000  Level Miami Center
Wed 12:07:17 PM 24.5775 -76.8633 120° Southeast 437 503 31,000  Level Miami Center
Wed 12:08:17 PM 24.5169 -76.7492 120° Southeast 437 503 31,000  Level Miami Center
Wed 12:09:17 PM 24.4561 -76.6328 120° Southeast 437 503 31,000  Level Miami Center
Wed 12:10:17 PM 24.4039 -76.5325 120° Southeast 437 503 31,000  Level Miami Center
Wed 12:11:17 PM 24.3428 -76.4117 119° Southeast 437 503 31,000 50 Level Miami Center
Wed 12:12:17 PM 24.2797 -76.2981 121° Southeast 442 509 31,100  Climbing Miami Center
Wed 12:13:17 PM 24.2167 -76.1819 121° Southeast 442 509 31,000 -50 Descending Miami Center
Wed 12:14:17 PM 24.1553 -76.0639 120° Southeast 442 509 31,000  Level Miami Center
Wed 12:15:17 PM 24.0919 -75.9506 121° Southeast 442 509 31,000  Level Miami Center
Wed 12:16:17 PM 24.0306 -75.8328 120° Southeast 442 509 31,000  Level Miami Center
Wed 12:17:17 PM 23.9692 -75.7172 120° Southeast 442 509 31,000  Level Miami Center
Wed 12:18:17 PM 23.9056 -75.6042 122° Southeast 442 509 31,000  Level Miami Center
Wed 12:19:17 PM 23.8461 -75.4889 119° Southeast 442 509 31,000  Level Miami Center
Wed 12:20:17 PM 23.7822 -75.3717 121° Southeast 442 509 31,000  Level Miami Center
Wed 12:21:17 PM 23.7142 -75.2475 121° Southeast 437 503 31,000  Level Miami Center
Wed 12:22:17 PM 23.6500 -75.1303 121° Southeast 437 503 31,000  Level Miami Center
Wed 12:23:17 PM 23.5881 -75.0156 120° Southeast 437 503 31,000  Level Miami Center
Wed 12:24:17 PM 23.5261 -74.9033 121° Southeast 437 503 31,000  Level Miami Center
Wed 12:25:17 PM 23.4597 -74.7889 122° Southeast 442 509 31,000  Level Miami Center
Wed 12:26:17 PM 23.3997 -74.6789 121° Southeast 442 509 31,000  Level Miami Center
Wed 12:27:17 PM 23.3372 -74.5622 120° Southeast 437 503 31,000  Level Miami Center
Wed 12:28:17 PM 23.2708 -74.4503 123° Southeast 437 503 31,000  Level Miami Center
Wed 12:29:17 PM 23.2061 -74.3342 121° Southeast 442 509 31,000  Level Miami Center
Wed 12:30:17 PM 23.1436 -74.2178 120° Southeast 442 509 31,000  Level Miami Center
Wed 12:31:17 PM 23.0831 -74.1017 120° Southeast 442 509 31,000  Level Miami Center
Wed 12:32:17 PM 23.0183 -73.9881 122° Southeast 442 509 31,000  Level Miami Center
Wed 12:33:17 PM 22.9492 -73.8722 123° Southeast 442 509 31,000  Level Miami Center
Wed 12:34:17 PM 22.8842 -73.7567 121° Southeast 442 509 31,000  Level Miami Center
Wed 12:35:17 PM 22.8192 -73.6408 121° Southeast 447 514 31,000  Level Miami Center
Wed 12:36:17 PM 22.7519 -73.5256 122° Southeast 447 514 31,000  Level Miami Center
Wed 12:37:17 PM 22.6867 -73.4125 122° Southeast 447 514 31,000  Level Miami Center
Wed 12:38:17 PM 22.6233 -73.2950 120° Southeast 447 514 31,000  Level Miami Center
Wed 12:39:17 PM 22.5619 -73.1775 119° Southeast 447 514 31,000  Level Miami Center
Wed 12:40:17 PM 22.5031 -73.0756 122° Southeast 447 514 31,000  Level Miami Center
Wed 12:41:17 PM 22.4397 -72.9608 121° Southeast 447 514 31,000  Level Miami Center
Wed 12:42:17 PM 22.3739 -72.8436 121° Southeast 447 514 31,000  Level Miami Center
Wed 12:43:17 PM 22.3061 -72.7269 122° Southeast 447 514 31,000  Level Miami Center
Wed 12:44:17 PM 22.2381 -72.6081 122° Southeast 453 521 31,000  Level Miami Center
Wed 12:45:17 PM 22.1703 -72.4936 123° Southeast 453 521 31,000  Level Miami Center
Wed 12:46:17 PM 22.1022 -72.3794 123° Southeast 453 521 31,000  Level Miami Center
Wed 12:47:17 PM 22.0361 -72.2631 121° Southeast 453 521 31,000  Level Miami Center
Wed 12:48:17 PM 21.9700 -72.1467 121° Southeast 453 521 31,000  Level Miami Center
Wed 12:49:17 PM 21.9036 -72.0306 122° Southeast 458 527 31,000  Level Miami Center
Wed 12:50:17 PM 21.8353 -71.9144 122° Southeast 458 527 31,000  Level Miami Center
Wed 12:51:17 PM 21.7689 -71.7964 121° Southeast 458 527 31,000  Level Miami Center
Wed 12:52:17 PM 21.7003 -71.6828 123° Southeast 458 527 31,000  Level Miami Center
Wed 12:53:17 PM 21.6339 -71.5694 122° Southeast 453 521 31,000  Level Miami Center
Wed 12:54:17 PM 21.5672 -71.4539 122° Southeast 453 521 31,000  Level Miami Center
Wed 12:55:17 PM 21.5006 -71.3406 122° Southeast 453 521 31,000  Level Miami Center
Wed 12:56:17 PM 21.4231 -71.2192 124° Southeast 453 521 31,000  Level Miami Center
Wed 12:57:17 PM 21.3569 -71.1172 125° Southeast 454 522 31,000  Level Miami Center
Wed 12:58:17 PM 21.2869 -70.9778 118° Southeast 460 529 31,000  Level Miami Center
Wed 12:59:17 PM 21.2219 -70.8628 121° Southeast 460 529 31,000  Level Miami Center
Wed 01:00:17 PM 21.1528 -70.7458 122° Southeast 460 529 31,000  Level Miami Center
Wed 01:01:17 PM 21.0836 -70.6314 123° Southeast 465 535 31,000  Level Miami Center
Wed 01:02:17 PM 21.0164 -70.5167 122° Southeast 465 535 31,000  Level Miami Center
Wed 01:03:17 PM 20.9469 -70.4000 122° Southeast 465 535 31,000  Level Miami Center
Wed 01:04:17 PM 20.8775 -70.2858 123° Southeast 465 535 31,000  Level Miami Center
Wed 01:05:17 PM 20.8100 -70.1694 122° Southeast 465 535 31,000  Level Miami Center
Wed 01:06:17 PM 20.7403 -70.0533 123° Southeast 465 535 31,000  Level Miami Center
Wed 01:07:17 PM 20.6725 -69.9372 122° Southeast 465 535 31,000  Level Miami Center
Wed 01:08:17 PM 20.6028 -69.8233 123° Southeast 465 535 31,000  Level Miami Center
Wed 01:09:17 PM 20.5331 -69.7097 123° Southeast 465 535 31,000  Level Miami Center
Wed 01:10:17 PM 20.4653 -69.5961 122° Southeast 460 529 31,000  Level Miami Center
Wed 01:11:17 PM 20.3975 -69.4806 122° Southeast 460 529 31,000  Level Miami Center
Wed 01:12:17 PM 20.3275 -69.3672 123° Southeast 465 535 31,000  Level Miami Center
Wed 01:13:17 PM 20.2594 -69.2517 122° Southeast 465 535 31,000  Level Miami Center
Wed 01:14:17 PM 20.1914 -69.1364 122° Southeast 465 535 31,000  Level Miami Center
Wed 01:15:17 PM 20.1211 -69.0258 124° Southeast 465 535 31,000  Level Miami Center
Wed 01:16:17 PM 20.0550 -68.9083 121° Southeast 465 535 31,000  Level Miami Center
Wed 01:17:17 PM 19.9906 -68.7908 120° Southeast 460 529 31,000  Level Miami Center
Wed 01:18:17 PM 19.9283 -68.6736 119° Southeast 454 522 31,000  Level Miami Center
Wed 01:19:17 PM 19.8639 -68.5542 120° Southeast 454 522 31,000  Level Miami Center
Wed 01:20:17 PM 19.7992 -68.4372 120° Southeast 459 528 31,000  Level Miami Center
Wed 01:21:17 PM 19.7350 -68.3244 121° Southeast 453 521 31,000  Level Miami Center
Wed 01:22:17 PM 19.6683 -68.2100 122° Southeast 453 521 31,000  Level Miami Center
Wed 01:23:17 PM 19.6075 -68.0886 118° Southeast 453 521 31,000  Level Miami Center
Wed 01:24:17 PM 19.5369 -67.9769 124° Southeast 458 527 31,000 -50 Level Miami Center
Wed 01:25:17 PM 19.4719 -67.8606 121° Southeast 458 527 30,900 -550 Descending Miami Center
Wed 01:26:17 PM 19.4092 -67.7439 120° Southeast 458 527 29,900 -1,200 Descending Miami Center
Wed 01:27:17 PM 19.3503 -67.6581 126° Southeast 458 527 28,500 -1,660 Descending Miami Center
Wed 01:27:51 PM 19.3000 -67.5667 120° Southeast 440 506 27,300 -1,979 Descending San Juan Center
Wed 01:28:51 PM 19.2333 -67.4667 125° Southeast 430 495 25,400 -1,835 Descending San Juan Center
Wed 01:29:52 PM 19.1833 -67.3500 114° Southeast 420 483 23,600 -1,736 Descending San Juan Center
Wed 01:30:52 PM 19.1167 -67.2500 125° Southeast 400 460 21,900 -1,650 Descending San Juan Center
Wed 01:31:52 PM 19.0667 -67.1500 118° Southeast 390 449 20,300 -1,750 Descending San Juan Center
Wed 01:32:52 PM 19.0167 -67.0667 122° Southeast 380 437 18,400 -1,686 Descending San Juan Center
Wed 01:33:53 PM 18.9500 -66.9667 125° Southeast 370 426 16,900 -1,587 Descending San Juan Center
Wed 01:34:53 PM 18.9000 -66.8667 118° Southeast 360 414 15,200 -1,636 Descending San Juan Center
Wed 01:35:54 PM 18.8500 -66.7833 122° Southeast 340 391 13,600 -1,785 Descending San Juan Center
Wed 01:36:54 PM 18.8000 -66.7000 122° Southeast 340 391 11,600 -1,600 Descending San Juan Center
Wed 01:37:54 PM 18.7333 -66.6167 130° Southeast 330 380 10,400 -1,050 Descending San Juan Center
Wed 01:38:54 PM 18.6833 -66.5500 128° Southeast 310 357 9,500 -1,240 Descending San Juan Center
Wed 01:39:55 PM 18.6333 -66.4833 128° Southeast 300 345 7,900 -1,438 Descending San Juan Center
Wed 01:40:55 PM 18.5833 -66.4167 128° Southeast 280 322 6,600 -1,300 Descending San Juan Center
Wed 01:41:55 PM 18.5500 -66.3500 118° Southeast 270 311 5,300 -1,339 Descending San Juan Center
Wed 01:42:56 PM 18.5000 -66.2833 128° Southeast 260 299 3,900 -1,140 Descending San Juan Center
Wed 01:43:56 PM 18.4500 -66.2333 137° Southeast 250 288 3,000 -595 Descending San Juan Center
Wed 01:44:57 PM 18.4333 -66.1833 109° East 210 242 2,700 -446 Descending San Juan Center
Wed 01:45:57 PM 18.4333 -66.1167 90° East 180 207 2,100 -650 Descending San Juan Center
Wed 01:46:57 PM 18.4333 -66.0833 90° East 150 173 1,400 -750 Descending San Juan Center
Wed 01:47:57 PM 18.4333 -66.0333 90° East 140 161 600 -800 Descending San Juan Center

Login

Don't have an account? Register now (free) for customized features, flight alerts, and more!